Weather forecast for Bulen (Булен)

Russia, 519 m
N52.847, E104.807


Sounding

Red line — air temperature ˚C.
Blue line — thermal bubble temperature ˚C.
Green line — dew point temperature ˚C.
Wind speed is in meters per second.

Table forecast

GFS 0.25˚ model

temp. wind gust humid. clouds prec. press. hpbl
Mon25 00:00 -7 323.0 nw 1 1 88 71 0.0 1019 21
03:00 -8 109.0 ese 1 1 89 61 0.0 1019 21
06:00 -9 97.0 e 2 2 90 29 0.0 1019 21
09:00 -6 82.0 e 2 4 89 56 0.1 1018 117
12:00 -1 100.0 e 3 5 87 99 0.3 1015 355
15:00 2 31.0 nne 0 1 98 100 0.3 1013 57
18:00 1 327.0 nnw 3 6 93 100 1.1 1014 313
21:00 -2 308.0 nw 4 9 91 100 1.4 1017 265
 
Tue26 00:00 -3 295.0 wnw 3 8 95 100 0.1 1020 271
03:00 -4 291.0 wnw 4 8 93 100 0.1 1022 270
06:00 -5 309.0 nw 5 11 90 97 0.0 1025 502
09:00 -5 337.0 nnw 5 9 89 98 0.3 1029 618
12:00 -4 319.0 nw 4 6 79 93 0.1 1032 898
15:00 -3 310.0 nw 5 7 69 71 0.1 1032 1075
18:00 -3 305.0 nw 5 8 73 13 0.0 1033 931
21:00 -7 301.0 wnw 4 9 83 7 0.0 1036 207
 
Wed27 00:00 -9 306.0 nw 2 3 90 0 0.0 1038 33
03:00 -10 293.0 wnw 2 2 91 0 0.0 1038 21
06:00 -11 268.0 w 1 1 92 0 0.0 1038 21
09:00 -10 225.0 sw 1 1 93 0 0.0 1038 23
12:00 -6 257.0 wsw 2 2 79 95 0.0 1036 488
15:00 -3 260.0 w 2 2 68 94 0.0 1033 863
18:00 -2 279.0 w 1 2 69 99 0.0 1032 772
21:00 -7 303.0 wnw 1 1 76 74 0.0 1033 21
 
Thu28 00:00 -8 327.0 nnw 1 1 81 11 0.0 1034 21
03:00 -9 139.0 se 0 1 85 6 0.0 1034 21
06:00 -10 138.0 se 1 1 87 0 0.0 1033 21
09:00 -9 115.0 ese 1 2 87 0 0.0 1033 23
12:00 -3 123.0 ese 2 3 69 0 0.0 1030 339
15:00 0 17.0 nne 0 1 60 20 0.0 1028 492
18:00 1 318.0 nw 1 2 67 84 0.0 1028 57
21:00 -3 296.0 wnw 3 3 83 89 0.0 1032 29
 
Fri29 00:00 -5 268.0 w 3 4 92 93 0.0 1033 80
03:00 -5 293.0 wnw 4 9 92 63 0.0 1033 211
06:00 -6 287.0 wnw 4 8 93 1 0.0 1034 174
09:00 -6 283.0 wnw 3 6 95 1 0.0 1035 147
12:00 -2 278.0 w 2 4 81 15 0.0 1034 530
15:00 0 262.0 w 2 2 67 12 0.0 1031 764
18:00 1 149.0 sse 0 1 63 0 0.0 1029 307
21:00 -3 97.0 e 3 3 72 0 0.0 1029 28
 

0.011 s